createdAt,value
2023-03-31T00:01:00.674Z,4.55
2023-03-31T00:03:28.322Z,7.72
2023-03-31T00:05:56.074Z,6.63
2023-03-31T00:08:23.158Z,5.38
2023-03-31T00:10:50.277Z,7.93
2023-03-31T00:13:17.437Z,8.93
2023-03-31T00:15:44.594Z,8.70
2023-03-31T00:18:12.005Z,5.13
2023-03-31T00:20:39.114Z,8.60
2023-03-31T00:23:10.748Z,4.30
2023-03-31T00:25:41.826Z,6.15
2023-03-31T00:28:08.903Z,5.65
2023-03-31T00:30:35.917Z,4.70
2023-03-31T00:33:03.647Z,5.32
2023-03-31T00:35:31.917Z,4.53
2023-03-31T00:37:59.106Z,4.70
2023-03-31T00:40:26.153Z,5.38
2023-03-31T00:42:54.113Z,5.63
2023-03-31T00:45:27.149Z,6.45
2023-03-31T00:47:54.233Z,5.22
2023-03-31T00:50:22.879Z,5.00
2023-03-31T00:52:51.231Z,11.32
2023-03-31T00:55:19.611Z,12.40
2023-03-31T00:57:46.794Z,11.57
2023-03-31T01:00:16.883Z,11.50
2023-03-31T01:02:51.491Z,7.50
2023-03-31T01:05:23.337Z,9.60
2023-03-31T01:07:50.579Z,14.15
2023-03-31T01:10:18.014Z,8.70
2023-03-31T01:12:46.461Z,8.63
2023-03-31T01:15:13.558Z,9.88
2023-03-31T01:17:45.053Z,11.18
2023-03-31T01:20:31.165Z,12.30
2023-03-31T01:23:11.179Z,10.32
2023-03-31T01:25:51.184Z,14.35
2023-03-31T01:28:36.404Z,13.45
2023-03-31T01:31:06.329Z,14.05
2023-03-31T01:33:39.214Z,13.70
2023-03-31T01:36:18.183Z,13.57
2023-03-31T01:38:54.192Z,13.93
2023-03-31T01:41:30.181Z,12.32
2023-03-31T01:44:06.332Z,13.68
2023-03-31T01:46:34.866Z,14.27
2023-03-31T01:49:01.978Z,12.52
2023-03-31T01:51:32.364Z,9.55
2023-03-31T01:53:59.483Z,11.50
2023-03-31T01:56:32.099Z,20.85
2023-03-31T01:58:59.247Z,9.77
2023-03-31T02:01:31.487Z,13.40
2023-03-31T02:04:12.116Z,12.60
2023-03-31T02:09:19.571Z,13.68
2023-03-31T02:11:46.620Z,12.00
2023-03-31T02:14:13.894Z,9.80
2023-03-31T02:16:41.930Z,12.68
2023-03-31T02:19:09.098Z,11.13
2023-03-31T02:21:38.055Z,16.05
2023-03-31T02:24:06.234Z,10.73
2023-03-31T02:26:35.027Z,12.80
2023-03-31T02:29:02.109Z,16.60
2023-03-31T02:31:29.250Z,12.38
2023-03-31T02:33:56.414Z,15.55
2023-03-31T02:36:23.495Z,20.65
2023-03-31T02:38:57.686Z,20.73
2023-03-31T02:41:24.787Z,16.10
2023-03-31T02:43:51.914Z,19.75
2023-03-31T02:46:19.052Z,18.95
2023-03-31T02:48:47.558Z,16.27
2023-03-31T02:51:20.636Z,21.15
2023-03-31T02:54:06.330Z,18.08
2023-03-31T02:56:33.409Z,18.25
2023-03-31T02:59:13.884Z,18.27
2023-03-31T03:01:43.997Z,22.30
2023-03-31T03:04:29.809Z,25.95
2023-03-31T03:07:05.476Z,24.45
2023-03-31T03:09:44.727Z,25.27
2023-03-31T03:12:13.780Z,24.65
2023-03-31T03:14:48.120Z,23.85
2023-03-31T03:17:19.546Z,25.48
2023-03-31T03:19:49.975Z,21.55
2023-03-31T03:22:17.074Z,25.73
2023-03-31T03:24:44.523Z,26.08
2023-03-31T03:27:11.666Z,24.95
2023-03-31T03:29:38.730Z,21.40
2023-03-31T03:32:05.859Z,23.13
2023-03-31T03:34:32.911Z,31.13
2023-03-31T03:36:59.924Z,27.35
2023-03-31T03:39:27.067Z,22.10
2023-03-31T03:41:54.271Z,23.55
2023-03-31T03:44:21.339Z,27.95
2023-03-31T03:46:48.593Z,32.95
2023-03-31T03:49:15.680Z,38.33
2023-03-31T03:51:42.723Z,27.10
2023-03-31T03:54:09.983Z,32.30
2023-03-31T03:56:37.122Z,29.42
2023-03-31T03:59:04.186Z,28.42
2023-03-31T04:01:31.635Z,29.50
2023-03-31T04:03:58.900Z,29.35
2023-03-31T04:06:25.976Z,35.13
2023-03-31T04:08:53.128Z,30.50
2023-03-31T04:11:20.187Z,30.98
2023-03-31T04:13:47.318Z,30.02
2023-03-31T04:16:14.448Z,37.40
2023-03-31T04:18:42.759Z,30.05
2023-03-31T04:21:12.379Z,33.58
2023-03-31T04:23:46.635Z,36.93
2023-03-31T04:26:17.565Z,32.17
2023-03-31T04:28:50.506Z,34.05
2023-03-31T04:31:25.380Z,34.90
2023-03-31T04:33:56.092Z,30.48
2023-03-31T04:36:23.234Z,33.05
2023-03-31T04:38:51.003Z,31.30
2023-03-31T04:41:18.452Z,22.98
2023-03-31T04:43:45.669Z,28.63
2023-03-31T04:46:12.796Z,22.70
2023-03-31T04:48:39.885Z,35.67
2023-03-31T04:51:07.057Z,32.58
2023-03-31T04:53:34.164Z,32.53
2023-03-31T04:56:01.250Z,18.40
2023-03-31T04:58:28.400Z,19.40
2023-03-31T05:00:55.554Z,19.75
2023-03-31T05:03:22.857Z,21.50
2023-03-31T05:05:50.143Z,18.83
2023-03-31T05:08:17.261Z,22.02
2023-03-31T05:10:44.428Z,24.50
2023-03-31T05:13:11.457Z,34.70
2023-03-31T05:15:41.607Z,23.75
2023-03-31T05:18:08.691Z,24.90
2023-03-31T05:20:36.215Z,26.98
2023-03-31T05:23:03.345Z,20.05
2023-03-31T05:25:32.984Z,16.63
2023-03-31T05:28:00.245Z,23.37
2023-03-31T05:30:27.364Z,22.05
2023-03-31T05:32:54.499Z,18.58
2023-03-31T05:35:21.649Z,26.55
2023-03-31T05:37:48.687Z,17.55
2023-03-31T05:40:15.771Z,19.58
2023-03-31T05:42:43.122Z,22.60
2023-03-31T05:45:10.361Z,21.80
2023-03-31T05:47:37.543Z,21.73
2023-03-31T05:50:07.817Z,15.75
2023-03-31T05:52:35.218Z,18.90
2023-03-31T05:55:02.270Z,18.65
2023-03-31T05:57:29.411Z,19.02
2023-03-31T05:59:56.470Z,19.77
2023-03-31T06:02:23.606Z,26.73
2023-03-31T06:04:50.708Z,18.67
2023-03-31T06:07:17.918Z,19.15
2023-03-31T06:09:46.071Z,18.27
2023-03-31T06:12:13.239Z,21.23
2023-03-31T06:14:40.279Z,23.10
2023-03-31T06:17:07.679Z,21.35
2023-03-31T06:19:34.995Z,28.02
2023-03-31T06:22:02.283Z,18.73
2023-03-31T06:24:29.373Z,21.58
2023-03-31T06:26:56.484Z,13.68
2023-03-31T06:29:23.563Z,19.08
2023-03-31T06:31:50.657Z,19.52
2023-03-31T06:34:19.389Z,20.83
2023-03-31T06:36:47.847Z,16.20
2023-03-31T06:39:14.941Z,19.77
2023-03-31T06:41:41.954Z,17.70
2023-03-31T06:44:09.259Z,23.10
2023-03-31T06:46:36.388Z,22.83
2023-03-31T06:49:03.605Z,12.90
2023-03-31T06:51:32.589Z,17.92
2023-03-31T06:53:59.882Z,21.77
2023-03-31T06:56:28.020Z,28.25
2023-03-31T06:58:55.268Z,21.67
2023-03-31T07:01:22.452Z,23.40
2023-03-31T07:03:49.634Z,25.52
2023-03-31T07:06:16.814Z,20.60
2023-03-31T07:08:43.919Z,19.15
2023-03-31T07:11:11.739Z,27.80
2023-03-31T07:13:38.900Z,21.90
2023-03-31T07:16:07.308Z,28.35
2023-03-31T07:18:35.489Z,37.28
2023-03-31T07:21:05.100Z,20.48
2023-03-31T07:23:34.307Z,23.10
2023-03-31T07:26:02.555Z,21.77
2023-03-31T07:28:30.048Z,21.83
2023-03-31T07:30:57.091Z,22.55
2023-03-31T07:33:24.148Z,18.00
2023-03-31T07:36:03.570Z,15.82
2023-03-31T07:38:37.550Z,17.85
2023-03-31T07:41:09.112Z,20.77
2023-03-31T07:43:36.924Z,20.33
2023-03-31T07:46:05.578Z,21.67
2023-03-31T07:48:33.993Z,16.13
2023-03-31T07:51:01.571Z,14.48
2023-03-31T07:53:28.687Z,16.63
2023-03-31T07:55:56.161Z,18.88
2023-03-31T07:58:23.252Z,18.52
2023-03-31T08:00:50.705Z,15.00
2023-03-31T08:03:17.859Z,9.45
2023-03-31T08:05:45.008Z,7.38
2023-03-31T08:08:12.040Z,8.75
2023-03-31T08:10:39.187Z,7.28
2023-03-31T08:13:06.501Z,8.52
2023-03-31T08:15:33.626Z,13.55
2023-03-31T08:18:00.805Z,6.30
2023-03-31T08:20:27.958Z,8.60
2023-03-31T08:22:55.426Z,9.30
2023-03-31T08:25:23.618Z,11.13
2023-03-31T08:27:53.428Z,7.97
2023-03-31T08:30:20.798Z,8.75
2023-03-31T08:32:47.885Z,13.70
2023-03-31T08:35:14.960Z,9.55
2023-03-31T08:37:42.022Z,8.48
2023-03-31T08:40:09.759Z,9.18
2023-03-31T08:42:41.009Z,9.25
2023-03-31T08:45:08.672Z,5.85
2023-03-31T08:47:36.598Z,7.43
2023-03-31T08:50:08.202Z,7.93
2023-03-31T08:52:40.736Z,4.50
2023-03-31T08:55:08.453Z,5.28
2023-03-31T08:57:43.023Z,3.15
2023-03-31T09:00:16.106Z,4.32
2023-03-31T09:03:07.094Z,3.35
2023-03-31T09:05:46.013Z,3.30
2023-03-31T09:08:20.274Z,2.58
2023-03-31T09:10:52.622Z,2.63
2023-03-31T09:13:23.922Z,2.15
2023-03-31T09:15:51.742Z,1.90
2023-03-31T09:18:32.505Z,3.17
2023-03-31T09:21:12.527Z,2.75
2023-03-31T09:23:47.493Z,5.65
2023-03-31T09:26:47.210Z,3.47
2023-03-31T09:29:24.517Z,4.70
2023-03-31T09:31:51.653Z,2.80
2023-03-31T09:34:26.434Z,3.88
2023-03-31T09:36:53.723Z,5.82
2023-03-31T09:39:20.824Z,4.50
2023-03-31T09:41:49.196Z,4.05
2023-03-31T09:44:24.973Z,4.80
2023-03-31T09:46:52.461Z,3.53
2023-03-31T09:49:20.720Z,3.45
2023-03-31T09:51:49.144Z,4.30
2023-03-31T09:54:16.379Z,5.63
2023-03-31T09:56:43.486Z,6.35
2023-03-31T09:59:17.929Z,6.03
2023-03-31T10:01:48.882Z,6.15
2023-03-31T10:04:25.836Z,5.00
2023-03-31T10:06:53.579Z,4.32
2023-03-31T10:09:40.989Z,4.03
2023-03-31T10:12:09.305Z,6.25
2023-03-31T10:14:40.718Z,9.60
2023-03-31T10:17:07.823Z,8.63
2023-03-31T10:19:36.402Z,7.45
2023-03-31T10:22:07.428Z,8.02
2023-03-31T10:24:41.407Z,8.70
2023-03-31T10:27:14.633Z,7.20
2023-03-31T10:29:41.775Z,7.30
2023-03-31T10:32:32.122Z,11.02
2023-03-31T10:35:21.389Z,8.13
2023-03-31T10:37:48.915Z,13.38
2023-03-31T10:40:16.640Z,6.20
2023-03-31T10:42:45.031Z,9.05
2023-03-31T10:45:36.277Z,4.47
2023-03-31T10:48:04.137Z,8.38
2023-03-31T10:50:32.513Z,5.20
2023-03-31T10:53:04.517Z,5.43
2023-03-31T10:55:36.292Z,8.98
2023-03-31T10:58:09.491Z,7.20
2023-03-31T11:00:44.737Z,5.07
2023-03-31T11:03:15.012Z,8.27
2023-03-31T11:05:44.611Z,6.78
2023-03-31T11:08:31.885Z,5.80
2023-03-31T11:11:15.036Z,5.72
2023-03-31T11:13:45.191Z,4.72
2023-03-31T11:16:12.390Z,2.90
2023-03-31T11:18:52.602Z,2.38
2023-03-31T11:21:32.326Z,6.15
2023-03-31T11:24:02.857Z,5.17
2023-03-31T11:29:16.612Z,5.03
2023-03-31T11:31:47.736Z,8.82
2023-03-31T11:34:18.210Z,8.13
2023-03-31T11:36:45.439Z,10.60
2023-03-31T11:39:31.457Z,8.50
2023-03-31T11:42:02.319Z,8.43
2023-03-31T11:44:31.121Z,4.88
2023-03-31T11:47:00.028Z,8.77
2023-03-31T11:49:31.421Z,8.88
2023-03-31T11:52:03.093Z,4.80
2023-03-31T11:54:30.304Z,6.15
2023-03-31T11:56:57.470Z,7.50
2023-03-31T11:59:27.409Z,9.25
2023-03-31T12:02:03.597Z,12.63
2023-03-31T12:04:33.737Z,9.82
2023-03-31T12:07:05.089Z,10.10
2023-03-31T12:10:06.004Z,10.13
2023-03-31T12:12:34.920Z,12.32
2023-03-31T12:15:06.067Z,6.80
2023-03-31T12:17:33.243Z,13.13
2023-03-31T12:20:02.611Z,10.35
2023-03-31T12:22:41.017Z,9.70
2023-03-31T12:25:12.476Z,10.77
2023-03-31T12:27:43.290Z,15.73
2023-03-31T12:30:10.627Z,11.48
2023-03-31T12:32:38.581Z,9.18
2023-03-31T12:35:15.646Z,2.63
2023-03-31T12:38:01.655Z,4.10
2023-03-31T12:40:51.722Z,4.30
2023-03-31T12:43:24.770Z,4.03
2023-03-31T12:45:57.958Z,4.30
2023-03-31T12:48:36.986Z,2.95
2023-03-31T12:51:40.643Z,4.80
2023-03-31T12:54:23.181Z,4.88
2023-03-31T12:57:02.527Z,6.00
2023-03-31T12:59:39.102Z,6.60
2023-03-31T13:02:12.199Z,4.55
2023-03-31T13:04:39.547Z,2.30
2023-03-31T13:07:17.486Z,5.78
2023-03-31T13:09:52.865Z,4.90
2023-03-31T13:12:20.768Z,2.50
2023-03-31T13:14:48.783Z,4.65
2023-03-31T13:17:23.676Z,3.30
2023-03-31T13:19:51.168Z,3.80
2023-03-31T13:22:34.686Z,7.15
2023-03-31T13:25:20.512Z,4.28
2023-03-31T13:27:53.083Z,7.57
2023-03-31T13:30:43.582Z,4.30
2023-03-31T13:33:14.607Z,3.55
2023-03-31T13:35:42.861Z,6.63
2023-03-31T13:38:19.169Z,7.82
2023-03-31T13:40:56.830Z,5.88
2023-03-31T13:43:27.165Z,4.88
2023-03-31T13:46:29.709Z,8.50
2023-03-31T13:49:18.453Z,6.13
2023-03-31T13:51:54.641Z,4.82
2023-03-31T13:54:36.577Z,6.22
2023-03-31T13:57:13.766Z,4.35
2023-03-31T14:00:01.551Z,10.82
2023-03-31T14:02:54.965Z,5.90
2023-03-31T14:05:34.861Z,3.72
2023-03-31T14:08:01.971Z,8.27
2023-03-31T14:10:30.938Z,5.93
2023-03-31T14:13:07.311Z,11.63
2023-03-31T14:15:34.497Z,7.40
2023-03-31T14:18:01.707Z,5.25
2023-03-31T14:20:49.612Z,6.38
2023-03-31T14:23:23.009Z,5.53
2023-03-31T14:26:08.832Z,9.65
2023-03-31T14:28:58.028Z,10.65
2023-03-31T14:31:35.137Z,7.35
2023-03-31T14:34:13.361Z,11.25
2023-03-31T14:36:51.080Z,9.65
2023-03-31T14:39:21.167Z,7.78
2023-03-31T14:41:53.154Z,9.50
2023-03-31T14:44:20.411Z,10.35
2023-03-31T14:46:48.085Z,15.40
2023-03-31T14:49:28.564Z,8.43
2023-03-31T14:51:56.210Z,9.63
2023-03-31T14:54:23.345Z,6.38
2023-03-31T14:56:54.313Z,11.35
2023-03-31T14:59:39.591Z,7.07
2023-03-31T15:02:06.706Z,8.05
2023-03-31T15:04:42.422Z,9.00
2023-03-31T15:07:09.910Z,7.43
2023-03-31T15:09:37.076Z,6.00
2023-03-31T15:12:04.931Z,9.38
2023-03-31T15:14:34.037Z,8.85
2023-03-31T15:17:01.317Z,6.78
2023-03-31T15:19:32.251Z,6.93
2023-03-31T15:22:04.062Z,6.72
2023-03-31T15:24:31.230Z,18.10
2023-03-31T15:27:01.723Z,8.93
2023-03-31T15:31:59.032Z,32.20
2023-03-31T15:34:36.713Z,10.15
2023-03-31T15:37:03.816Z,6.72
2023-03-31T15:39:31.702Z,7.28
2023-03-31T15:41:59.203Z,6.88
2023-03-31T15:44:39.746Z,9.63
2023-03-31T15:49:44.872Z,8.27
2023-03-31T15:52:20.389Z,7.10
2023-03-31T15:54:47.422Z,6.38
2023-03-31T15:57:16.137Z,6.20
2023-03-31T16:02:20.357Z,5.00
2023-03-31T16:04:51.445Z,9.18
2023-03-31T16:07:18.611Z,3.47
2023-03-31T16:09:55.999Z,5.30
2023-03-31T16:12:26.155Z,10.93
2023-03-31T16:14:53.435Z,6.25
2023-03-31T16:17:31.841Z,9.10
2023-03-31T16:20:00.905Z,8.95
2023-03-31T16:22:31.190Z,10.35
2023-03-31T16:24:58.249Z,8.93
2023-03-31T16:27:25.366Z,5.30
2023-03-31T16:29:52.418Z,7.88
2023-03-31T16:32:20.904Z,6.90
2023-03-31T16:35:03.494Z,7.80
2023-03-31T16:37:30.610Z,10.70
2023-03-31T16:39:58.133Z,7.28
2023-03-31T16:42:25.863Z,8.55
2023-03-31T16:45:09.394Z,6.38
2023-03-31T16:47:41.581Z,7.32
2023-03-31T16:50:11.087Z,12.55
2023-03-31T16:52:38.116Z,5.22
2023-03-31T16:55:05.449Z,6.65
2023-03-31T16:57:32.704Z,8.55
2023-03-31T17:00:00.555Z,5.60
2023-03-31T17:02:27.715Z,7.15
2023-03-31T17:04:59.680Z,6.38
2023-03-31T17:07:33.358Z,5.50
2023-03-31T17:10:00.561Z,5.65
2023-03-31T17:12:27.592Z,7.30
2023-03-31T17:14:54.684Z,7.75
2023-03-31T17:17:21.869Z,10.48
2023-03-31T17:19:48.960Z,8.38
2023-03-31T17:22:16.126Z,5.45
2023-03-31T17:24:43.356Z,11.25
2023-03-31T17:27:11.180Z,5.25
2023-03-31T17:29:38.238Z,5.25
2023-03-31T17:32:05.558Z,7.78
2023-03-31T17:34:32.643Z,4.95
2023-03-31T17:36:59.774Z,8.98
2023-03-31T17:39:27.529Z,8.88
2023-03-31T17:41:54.505Z,6.72
2023-03-31T17:44:21.863Z,7.15
2023-03-31T17:46:49.140Z,11.85
2023-03-31T17:49:17.390Z,8.27
2023-03-31T17:51:45.861Z,11.13
2023-03-31T17:54:12.880Z,8.43
2023-03-31T17:56:39.889Z,8.30
2023-03-31T17:59:07.027Z,8.55
2023-03-31T18:01:34.074Z,7.32
2023-03-31T18:04:02.195Z,11.25
2023-03-31T18:06:29.223Z,11.50
2023-03-31T18:08:56.953Z,9.25
2023-03-31T18:11:24.369Z,8.05
2023-03-31T18:13:51.418Z,8.75
2023-03-31T18:16:19.365Z,12.63
2023-03-31T18:18:46.462Z,11.32
2023-03-31T18:21:14.069Z,11.48
2023-03-31T18:23:41.162Z,14.80
2023-03-31T18:26:08.626Z,11.40
2023-03-31T18:28:35.746Z,18.70
2023-03-31T18:31:03.736Z,11.07
2023-03-31T18:33:30.900Z,12.00
2023-03-31T18:35:58.684Z,10.63
2023-03-31T18:38:27.004Z,8.55
2023-03-31T18:40:54.234Z,15.27
2023-03-31T18:43:24.689Z,6.72
2023-03-31T18:45:52.284Z,9.75
2023-03-31T18:48:19.350Z,10.23
2023-03-31T18:50:46.711Z,10.88
2023-03-31T18:53:15.295Z,13.52
2023-03-31T18:55:43.011Z,7.72
2023-03-31T18:58:10.101Z,10.57
2023-03-31T19:00:37.170Z,10.02
2023-03-31T19:03:04.513Z,12.13
2023-03-31T19:05:31.685Z,13.13
2023-03-31T19:07:59.158Z,11.70
2023-03-31T19:10:26.292Z,10.38
2023-03-31T19:12:54.221Z,10.60
2023-03-31T19:15:21.523Z,14.40
2023-03-31T19:17:48.686Z,8.55
2023-03-31T19:20:18.893Z,11.68
2023-03-31T19:22:46.378Z,17.30
2023-03-31T19:25:13.595Z,11.38
2023-03-31T19:27:41.216Z,12.25
2023-03-31T19:30:08.466Z,18.75
2023-03-31T19:32:35.537Z,11.73
2023-03-31T19:35:02.582Z,13.48
2023-03-31T19:37:29.598Z,12.75
2023-03-31T19:39:56.656Z,20.30
2023-03-31T19:42:23.674Z,11.63
2023-03-31T19:44:50.662Z,12.73
2023-03-31T19:47:17.629Z,9.32
2023-03-31T19:49:44.648Z,14.57
2023-03-31T19:52:11.685Z,11.43
2023-03-31T19:54:38.780Z,14.65
2023-03-31T19:57:05.860Z,9.95
2023-03-31T19:59:32.868Z,16.25
2023-03-31T20:02:02.395Z,11.75
2023-03-31T20:04:29.606Z,15.52
2023-03-31T20:06:56.821Z,13.02
2023-03-31T20:09:25.166Z,13.40
2023-03-31T20:11:53.870Z,16.33
2023-03-31T20:14:21.382Z,16.75
2023-03-31T20:16:49.687Z,15.68
2023-03-31T20:19:16.767Z,11.07
2023-03-31T20:21:44.043Z,13.95
2023-03-31T20:24:14.614Z,12.02
2023-03-31T20:29:08.638Z,13.00
2023-03-31T20:31:39.170Z,12.10
2023-03-31T20:36:33.435Z,12.60
2023-03-31T20:39:03.968Z,17.35
2023-03-31T20:43:58.795Z,14.93
2023-03-31T20:46:26.029Z,13.48
2023-03-31T20:48:54.949Z,12.00
2023-03-31T20:51:22.630Z,6.93
2023-03-31T20:53:50.222Z,11.07
2023-03-31T20:56:21.130Z,13.85
2023-03-31T20:58:49.073Z,17.95
2023-03-31T21:01:16.635Z,9.88
2023-03-31T21:03:43.769Z,7.20
2023-03-31T21:06:12.065Z,10.50
2023-03-31T21:08:39.468Z,12.43
2023-03-31T21:11:06.527Z,13.32
2023-03-31T21:13:33.728Z,11.55
2023-03-31T21:16:00.918Z,14.23
2023-03-31T21:18:28.611Z,9.23
2023-03-31T21:20:56.338Z,12.32
2023-03-31T21:23:23.711Z,9.98
2023-03-31T21:25:51.238Z,12.07
2023-03-31T21:28:20.291Z,10.55
2023-03-31T21:30:57.143Z,14.43
2023-03-31T21:33:25.001Z,11.02
2023-03-31T21:35:52.198Z,12.90
2023-03-31T21:38:19.751Z,12.80
2023-03-31T21:40:47.092Z,15.65
2023-03-31T21:43:14.261Z,11.43
2023-03-31T21:45:41.708Z,17.23
2023-03-31T21:48:09.309Z,9.68
2023-03-31T21:50:36.942Z,9.23
2023-03-31T21:53:04.785Z,9.68
2023-03-31T21:55:32.361Z,9.45
2023-03-31T21:57:59.852Z,7.32
2023-03-31T22:00:26.978Z,14.32
2023-03-31T22:03:06.342Z,8.88
2023-03-31T22:05:41.073Z,6.72
2023-03-31T22:08:08.098Z,8.88
2023-03-31T22:10:35.094Z,8.57
2023-03-31T22:13:02.136Z,12.05
2023-03-31T22:15:29.206Z,7.30
2023-03-31T22:17:57.361Z,7.78
2023-03-31T22:20:24.381Z,8.60
2023-03-31T22:22:51.749Z,9.52
2023-03-31T22:25:18.802Z,11.45
2023-03-31T22:27:46.027Z,8.20
2023-03-31T22:30:13.321Z,7.95
2023-03-31T22:32:40.453Z,13.57
2023-03-31T22:35:07.694Z,12.32
2023-03-31T22:37:34.686Z,10.70
2023-03-31T22:40:01.676Z,8.43
2023-03-31T22:42:28.781Z,8.80
2023-03-31T22:44:56.021Z,9.90
2023-03-31T22:47:23.039Z,11.40
2023-03-31T22:49:50.060Z,8.40
2023-03-31T22:52:17.095Z,8.95
2023-03-31T22:54:44.150Z,10.93
2023-03-31T22:57:11.756Z,7.15
2023-03-31T22:59:38.941Z,8.15
2023-03-31T23:02:06.153Z,12.10
2023-03-31T23:04:33.178Z,7.47
2023-03-31T23:07:00.188Z,6.43
2023-03-31T23:09:27.162Z,8.70
2023-03-31T23:11:54.235Z,11.82
2023-03-31T23:14:21.353Z,8.95
2023-03-31T23:16:48.331Z,9.35
2023-03-31T23:19:15.618Z,6.72
2023-03-31T23:21:42.658Z,8.52
2023-03-31T23:24:10.707Z,8.07
2023-03-31T23:26:37.713Z,8.95
2023-03-31T23:29:04.868Z,6.72
2023-03-31T23:31:32.647Z,8.07
2023-03-31T23:33:59.814Z,11.45
2023-03-31T23:36:27.113Z,13.57
2023-03-31T23:38:54.811Z,12.43
2023-03-31T23:41:22.835Z,12.18
2023-03-31T23:43:50.826Z,13.85
2023-03-31T23:46:18.065Z,9.90
2023-03-31T23:48:45.322Z,15.00
2023-03-31T23:51:13.165Z,9.48
2023-03-31T23:53:40.364Z,8.00
2023-03-31T23:56:08.748Z,7.85
2023-03-31T23:58:35.938Z,9.73
